Tiempo atmosférico en la estación meteorológica de Motril, Puerto, Granada (3 m.)



Fecha
DESCASC
Temp. máxima en grados centígrados (hora)
DESCASC
Temp. mínima en grados centígrados (hora)
DESCASC
Temp. media en grados centígrados
DESCASC
Racha de viento máxima en m/sg (hora)
DESCASC
Velocidad máxima media en intervalos de 10 minutos(hora)
DESCASC
Precipitaciones diarias en mm
DESCASC
Precipitaciones de 00:00 a 06:00 en mm
DESCASC
Precipitaciones de 06:00 a 12:00 en mm
DESCASC
Precipitaciones de 12:00 a 18:00 en mm
DESCASC
Precipitaciones de 18:00 a 24:00 en mm
DESCASC
02-08-2020 -- (--) -- (--) -- 8.89 (15:00) 6.39 (15:10) 0 0 0 0 0
01-08-2020 -- (--) -- (--) -- 10.28 (07:20) 4.17 (07:20) 0 0 0 0 0
31-07-2020 -- (--) -- (--) -- 5.28 (20:40) 3.06 (16:50) 0 0 0 0 0
30-07-2020 -- (--) -- (--) -- 8.89 (11:10) 5.83 (11:10) 0 0 0 0 0
29-07-2020 -- (--) -- (--) -- 8.89 (23:50) 5.83 (10:50) 1 0 0 0 1
28-07-2020 -- (--) -- (--) -- 5 (13:50) 3.33 (13:50) 0 0 0 0 0
27-07-2020 -- (--) -- (--) -- 5.56 (14:20) 3.33 (13:50) 0 0 0 0 0
26-07-2020 -- (--) -- (--) -- 5 (23:40) 3.06 (23:30) 0 0 0 0 0
25-07-2020 -- (--) -- (--) -- 8.33 (12:10) 6.11 (12:00) 0.4 0 0.4 0 0
24-07-2020 -- (--) -- (--) -- 3.89 (11:20) 2.78 (11:20) 0 0 0 0 0
23-07-2020 -- (--) -- (--) -- 4.17 (12:10) 2.78 (12:10) 0 0 0 0 0
22-07-2020 -- (--) -- (--) -- 7.22 (04:10) 3.61 (15:00) 0 0 0 0 0
21-07-2020 -- (--) -- (--) -- 14.44 (16:20) 11.67 (16:10) 0 0 0 0 0
20-07-2020 -- (--) -- (--) -- 10.83 (14:20) 8.61 (14:20) 0 0 0 0 0
19-07-2020 -- (--) -- (--) -- 4.44 (14:50) 3.33 (11:30) 0 0 0 0 0
18-07-2020 -- (--) -- (--) -- 4.17 (13:10) 3.06 (00:40) 0 0 0 0 0
17-07-2020 -- (--) -- (--) -- 6.94 (12:20) 5.28 (12:30) 0 0 0 0 0
16-07-2020 -- (--) -- (--) -- 10 (13:40) 7.78 (13:40) 0 0 0 0 0
15-07-2020 -- (--) -- (--) -- 9.72 (17:10) 8.06 (17:10) 0 0 0 0 0
14-07-2020 -- (--) -- (--) -- 8.33 (17:40) 5.83 (16:40) 0 0 0 0 0
13-07-2020 -- (--) -- (--) -- 7.78 (14:20) 3.89 (17:00) 0 0 0 0 0
12-07-2020 -- (--) -- (--) -- 14.72 (12:30) 10.83 (14:50) 0 0 0 0 0
11-07-2020 -- (--) -- (--) -- 12.22 (17:30) 8.61 (17:30) 0 0 0 0 0
10-07-2020 -- (--) -- (--) -- 3.61 (10:50) 2.5 (11:00) 0 0 0 0 0
09-07-2020 -- (--) -- (--) -- 5 (06:40) 2.5 (06:40) 0 0 0 0 0
08-07-2020 -- (--) -- (--) -- 13.89 (16:40) 9.44 (15:50) 0 0 0 0 0
07-07-2020 -- (--) -- (--) -- 3.89 (16:00) 2.78 (15:50) 0 0 0 0 0

Gráficas

Temp. máximas Temp. mínimas Temp. medias Precipitaciones Rachas de viento máximas Velocidades máximas media en intervalos de 10 minutos

Datos horarios

Fecha y hora oficial Temperatura (ºC) Velocidad del viento (km/h) Dirección del viento Racha (km/h) Dirección de racha Precipitación (mm) Presión (hPa) Tendencia (hPa) Humedad (%)
2020-08-05 23:00:00 -- 4 Noroeste 15 Noroeste 0 -- -- 80
2020-08-05 22:00:00 -- 9 Noroeste 17 Oeste 0 -- -- 70
2020-08-05 21:00:00 -- 10 Noroeste 21 Sudeste 0 -- -- 63
2020-08-05 20:00:00 -- 14 Sudeste 29 Sudeste 0 -- -- 56
2020-08-05 19:00:00 -- 23 Sudeste 34 Sudeste 0 -- -- 58
2020-08-05 18:00:00 -- 30 Sudeste 37 Sudeste 0 -- -- 63
2020-08-05 17:00:00 -- 27 Sudeste 35 Sudeste 0 -- -- 65
2020-08-05 16:00:00 -- 28 Sudeste 37 Sudeste 0 -- -- 65
2020-08-05 15:00:00 -- 25 Sudeste 35 Sudeste 0 -- -- 69
2020-08-05 14:00:00 -- 25 Sudeste 32 Sudeste 0 -- -- 49
2020-08-05 13:00:00 -- 24 Sudeste 33 Sudeste 0 -- -- 50
2020-08-05 12:00:00 -- 9 Sudoeste 19 Sudoeste 0 -- -- 67
2020-08-05 11:00:00 -- 8 Sur 16 Sur 0 -- -- 71
2020-08-05 10:00:00 -- 5 Sudoeste 9 Sudoeste 0 -- -- 68
2020-08-05 09:00:00 -- 0 Calma 5 Sudeste 0 -- -- 81
2020-08-05 08:00:00 -- 0 Calma 3 Nordeste 0.4 -- -- 88
2020-08-05 07:00:00 -- 0 Calma 6 Este 0 -- -- 87
2020-08-05 06:00:00 -- 3 Este 4 Este 0 -- -- 89
2020-08-05 05:00:00 -- 2 Norte 5 Norte 0 -- -- 88
2020-08-05 04:00:00 -- 6 Este 12 Sudeste 0 -- -- 87
2020-08-05 03:00:00 -- 10 Sudeste 13 Sudeste 0 -- -- 87
2020-08-05 02:00:00 -- 7 Sudeste 13 Sudeste 0 -- -- 86
2020-08-05 01:00:00 -- 2 Nordeste 8 Sudeste 0 -- -- 84
2020-08-05 00:00:00 -- 7 Sudeste 11 Sudoeste 0 -- -- 84
2020-08-04 23:00:00 -- 4 Sudoeste 9 Noroeste 0 -- -- 82
2020-08-04 22:00:00 -- 7 Noroeste 11 Noroeste 0 -- -- 82
2020-08-04 21:00:00 -- 12 Sudeste 24 Sudeste 0 -- -- 80
2020-08-04 20:00:00 -- 13 Sudeste 20 Sur 0 -- -- 82
2020-08-04 19:00:00 -- 9 Sur 19 Sur 0 -- -- 77
2020-08-04 18:00:00 -- 12 Sudeste 21 Sudeste 0 -- -- 80
2020-08-04 17:00:00 -- 13 Sudeste 22 Sudeste 0 -- -- 81
2020-08-04 16:00:00 -- 15 Sudeste 25 Sudeste 0 -- -- 81
2020-08-04 15:00:00 -- 19 Sudeste 25 Sudeste 0 -- -- 82
2020-08-04 14:00:00 -- 13 Sudeste 25 Sudeste 0 -- -- 83
2020-08-04 13:00:00 -- 15 Sudeste 26 Sudeste 0 -- -- 86
2020-08-04 12:00:00 -- 20 Sudeste 36 Sudeste 0 -- -- 86
2020-08-04 11:00:00 -- 25 Sudeste 35 Este 0 -- -- 78
2020-08-04 10:00:00 -- 16 Sudeste 26 Sudeste 0 -- -- 74
2020-08-04 09:00:00 -- 14 Sudeste 20 Sudeste 0 -- -- 77
2020-08-04 08:00:00 -- 3 Nordeste 12 Este 0 -- -- 79
2020-08-04 07:00:00 -- 3 Nordeste 8 Nordeste 0 -- -- 83
2020-08-04 06:00:00 -- 3 Noroeste 8 Norte 0 -- -- 83
2020-08-04 05:00:00 -- 0 Calma 6 Noroeste 0 -- -- 83
2020-08-04 04:00:00 -- 3 Nordeste 19 Sudeste 0 -- -- 83
2020-08-04 03:00:00 -- 10 Este 27 Este 0 -- -- 84
2020-08-04 02:00:00 -- 16 Este 27 Sudeste 0 -- -- 83
2020-08-04 01:00:00 -- 4 Noroeste 9 Sur 0 -- -- 71
2020-08-04 00:00:00 -- 2 Oeste 9 Noroeste 0 -- -- 69
2020-08-03 23:00:00 -- 5 Noroeste 9 Noroeste 0 -- -- 70
2020-08-03 22:00:00 -- 4 Noroeste 9 Oeste 0 -- -- 71
2020-08-03 21:00:00 -- 4 Sudoeste 9 Sur 0 -- -- 69
2020-08-03 20:00:00 -- 4 Sur 13 Sur 0 -- -- 68
2020-08-03 19:00:00 -- 6 Sur 10 Sudoeste 0 -- -- 66
2020-08-03 18:00:00 -- 5 Sudoeste 13 Sudoeste 0 -- -- 64
2020-08-03 17:00:00 -- 8 Sudoeste 17 Sudoeste 0 -- -- 65
2020-08-03 16:00:00 -- 10 Sudoeste 18 Sudoeste 0 -- -- 66
2020-08-03 15:00:00 -- 10 Sudoeste 18 Sudoeste 0 -- -- 67
2020-08-03 14:00:00 -- 13 Sudoeste 21 Sudoeste 0 -- -- 67
2020-08-03 13:00:00 -- 9 Sudoeste 25 Sur 0 -- -- 70
2020-08-03 12:00:00 -- 10 Sur 19 Sur 0 -- -- 69
2020-08-03 11:00:00 -- 8 Sur 26 Sudeste 0 -- -- 72
2020-08-03 10:00:00 -- 4 Oeste 10 Este 0 -- -- 70
2020-08-03 09:00:00 -- 7 Oeste 15 Oeste 0 -- -- 76
2020-08-03 08:00:00 -- 3 Este 14 Noroeste 0 -- -- 85
2020-08-03 07:00:00 -- 9 Noroeste 15 Noroeste 0 -- -- 84
2020-08-03 06:00:00 -- 4 Noroeste 12 Oeste 0 -- -- 84
2020-08-03 05:00:00 -- 6 Noroeste 10 Oeste 0 -- -- 83
2020-08-03 04:00:00 -- 6 Noroeste 12 Noroeste 0 -- -- 81
2020-08-03 03:00:00 -- 3 Norte 7 Noroeste 0 -- -- 83
2020-08-03 02:00:00 -- 3 Sudeste 7 Sudeste 0 -- -- 82
2020-08-03 01:00:00 -- 3 Nordeste 9 Sudoeste 0 -- -- 77
2020-08-03 00:00:00 -- 5 Sur 9 Sur 0 -- -- 78
2020-08-02 23:00:00 -- 0 Calma 9 Sur 0 -- -- 82
2020-08-02 22:00:00 -- 4 Sudeste 6 Sudeste 0 -- -- 78
2020-08-02 21:00:00 -- 2 Sudeste 6 Sur 0 -- -- 68
2020-08-02 20:00:00 -- 4 Sur 9 Sudoeste 0 -- -- 66
2020-08-02 19:00:00 -- 6 Sudeste 15 Sur 0 -- -- 59
2020-08-02 18:00:00 -- 10 Sur 18 Sur 0 -- -- 62
2020-08-02 17:00:00 -- 8 Sur 20 Sudeste 0 -- -- 51
2020-08-02 16:00:00 -- 10 Sur 30 Sudeste 0 -- -- 66
2020-08-02 15:00:00 -- 21 Sudeste 32 Sudeste 0 -- -- 69
2020-08-02 14:00:00 -- 8 Sudeste 20 Sudoeste 0 -- -- 65
2020-08-02 13:00:00 -- 8 Sudoeste 20 Oeste 0 -- -- 68
2020-08-02 12:00:00 -- 12 Oeste 26 Sudoeste 0 -- -- 69
2020-08-02 11:00:00 -- 5 Oeste 13 Noroeste 0 -- -- 66
2020-08-02 10:00:00 -- 4 Noroeste 19 Oeste 0 -- -- 74
2020-08-02 09:00:00 -- 11 Noroeste 20 Oeste 0 -- -- 80
2020-08-02 08:00:00 -- 0 Calma 9 Sur 0 -- -- 82
2020-08-02 07:00:00 -- 5 Sudeste 8 Sur 0 -- -- 81
2020-08-02 06:00:00 -- 0 Calma 8 Norte 0 -- -- 78
2020-08-02 05:00:00 -- 2 Norte 10 Sudeste 0 -- -- 82
2020-08-02 04:00:00 -- 4 Norte 8 Norte 0 -- -- 82
2020-08-02 03:00:00 -- 2 Este 5 Nordeste 0 -- -- 82
2020-08-02 02:00:00 -- 2 Nordeste 6 Nordeste 0 -- -- 81
2020-08-02 01:00:00 -- 2 Oeste 7 Oeste 0 -- -- 76
2020-08-02 00:00:00 -- 3 Oeste 7 Noroeste 0 -- -- 75
2020-08-01 23:00:00 -- 5 Oeste 11 Oeste 0 -- -- 74
2020-08-01 22:00:00 -- 7 Oeste 13 Oeste 0 -- -- 71
2020-08-01 21:00:00 -- 6 Sudoeste 9 Sudoeste 0 -- -- 64
2020-08-01 20:00:00 -- 5 Sudoeste 10 Sudoeste 0 -- -- 53
2020-08-01 19:00:00 -- 5 Sudoeste 14 Noroeste 0 -- -- 51
2020-08-01 18:00:00 -- 5 Sudoeste 15 Oeste 0 -- -- 51
2020-08-01 17:00:00 -- 9 Oeste 19 Oeste 0 -- -- 56
2020-08-01 16:00:00 -- 9 Oeste 23 Oeste 0 -- -- 64
2020-08-01 15:00:00 -- 10 Sudoeste 18 Sudoeste 0 -- -- 74
2020-08-01 14:00:00 -- 7 Sur 14 Sudoeste 0 -- -- 76
2020-08-01 13:00:00 -- 6 Sur 14 Sudoeste 0 -- -- 73
2020-08-01 12:00:00 -- 7 Sur 13 Sudoeste 0 -- -- 77
2020-08-01 11:00:00 -- 5 Sudoeste 10 Sudoeste 0 -- -- 78
2020-08-01 10:00:00 -- 6 Sur 14 Sur 0 -- -- 84
2020-08-01 09:00:00 -- 3 Sudeste 6 Sur 0 -- -- 86
2020-08-01 08:00:00 -- 4 Norte 37 Oeste 0 -- -- 86
2020-08-01 07:00:00 -- 2 Este 6 Nordeste 0 -- -- 81
2020-08-01 06:00:00 -- 4 Sudoeste 10 Sudoeste 0 -- -- 81
2020-08-01 05:00:00 -- 7 Nordeste 20 Noroeste 0 -- -- 87
2020-08-01 04:00:00 -- 4 Oeste 13 Sudoeste 0 -- -- 88
2020-08-01 03:00:00 -- 4 Norte 13 Oeste 0 -- -- 86
2020-08-01 02:00:00 -- 7 Oeste 13 Oeste 0 -- -- 86
2020-08-01 01:00:00 -- 2 Noroeste 6 Nordeste 0 -- -- 78
2020-08-01 00:00:00 -- 4 Nordeste 10 Oeste 0 -- -- 77
2020-07-31 23:00:00 -- 3 Oeste 8 Oeste 0 -- -- 74
2020-07-31 22:00:00 -- 7 Oeste 13 Oeste 0 -- -- 71
2020-07-31 21:00:00 -- 8 Noroeste 19 Oeste 0 -- -- 76
2020-07-31 20:00:00 -- 5 Oeste 17 Sudoeste 0 -- -- 74
2020-07-31 19:00:00 -- 8 Oeste 15 Oeste 0 -- -- 70
2020-07-31 18:00:00 -- 7 Sudoeste 17 Sudoeste 0 -- -- 71
2020-07-31 17:00:00 -- 9 Sudoeste 19 Sudoeste 0 -- -- 69
2020-07-31 16:00:00 -- 10 Sudoeste 18 Sudoeste 0 -- -- 70
2020-07-31 15:00:00 -- 10 Sudoeste 17 Sudoeste 0 -- -- 74
2020-07-31 14:00:00 -- 9 Sudoeste 15 Sudoeste 0 -- -- 74
2020-07-31 13:00:00 -- 8 Sudoeste 13 Sudoeste 0 -- -- 76
2020-07-31 12:00:00 -- 7 Sur 11 Sudoeste 0 -- -- 74
2020-07-31 11:00:00 -- 4 Sur 9 Sur 0 -- -- 70
2020-07-31 10:00:00 -- 5 Sur 8 Sur 0 -- -- 80
2020-07-31 09:00:00 -- 3 Sudeste 4 Norte 0 -- -- 84
2020-07-31 08:00:00 -- 0 Calma 3 Norte 0 -- -- 88
2020-07-31 07:00:00 -- 0 Calma 5 Noroeste 0 -- -- 89
2020-07-31 06:00:00 -- 4 Noroeste 6 Nordeste 0 -- -- 88
2020-07-31 05:00:00 -- 3 Este 5 Nordeste 0 -- -- 88
2020-07-31 04:00:00 -- 3 Nordeste 5 Nordeste 0 -- -- 88
2020-07-31 03:00:00 -- 0 Calma 9 Oeste 0 -- -- 87
2020-07-31 02:00:00 -- 4 Sudoeste 8 Oeste 0 -- -- 85
2020-07-31 01:00:00 -- 0 Calma 5 Este 0 -- -- 85
2020-07-31 00:00:00 -- 3 Sudeste 5 Sudeste 0 -- -- 85
2020-07-30 23:00:00 -- 4 Sur 9 Sur 0 -- -- 85
2020-07-30 22:00:00 -- 5 Sur 9 Sudoeste 0 -- -- 84
2020-07-30 21:00:00 -- 4 Sur 13 Sudoeste 0 -- -- 84
2020-07-30 20:00:00 -- 5 Sudoeste 11 Sur 0 -- -- 80
2020-07-30 19:00:00 -- 6 Sur 12 Sur 0 -- -- 76
2020-07-30 18:00:00 -- 9 Sur 13 Sur 0 -- -- 74
2020-07-30 17:00:00 -- 8 Sur 15 Sur 0 -- -- 75
2020-07-30 16:00:00 -- 10 Sur 13 Sur 0 -- -- 76
2020-07-30 15:00:00 -- 9 Sur 13 Sur 0 -- -- 76
2020-07-30 14:00:00 -- 7 Sudoeste 14 Sudoeste 0 -- -- 73
2020-07-30 13:00:00 -- 7 Sur 16 Sudoeste 0 -- -- 73
2020-07-30 12:00:00 -- 9 Sudoeste 32 Sudeste 0 -- -- 75
2020-07-30 11:00:00 -- 15 Sudeste 25 Sudeste 0 -- -- 76
2020-07-30 10:00:00 -- 7 Sudeste 13 Sudeste 0 -- -- 82
2020-07-30 09:00:00 -- 4 Oeste 10 Oeste 0 -- -- 84
2020-07-30 08:00:00 -- 3 Sudoeste 7 Sur 0 -- -- 88
2020-07-30 07:00:00 -- 0 Calma 5 Sudeste 0 -- -- 90
2020-07-30 06:00:00 -- 3 Este 5 Sudeste 0 -- -- 90
2020-07-30 05:00:00 -- 0 Calma 7 Sudoeste 0 -- -- 90
2020-07-30 04:00:00 -- 4 Noroeste 12 Noroeste 0 -- -- 89
2020-07-30 03:00:00 -- 9 Sudeste 15 Oeste 0 -- -- 88
2020-07-30 02:00:00 -- 10 Noroeste 20 Noroeste 0 -- -- 84
2020-07-30 01:00:00 -- 9 Noroeste 25 Este 0 -- -- 83
2020-07-30 00:00:00 -- 20 Este 32 Sudeste 0 -- -- 84
2020-07-29 23:00:00 -- 20 Sudeste 26 Sudeste 0 -- -- 85
2020-07-29 22:00:00 -- 13 Sudeste 18 Sudeste 0 -- -- 87
2020-07-29 21:00:00 -- 13 Sudeste 22 Sudeste 0 -- -- 87
2020-07-29 20:00:00 -- 14 Sudeste 19 Sur 1 -- -- 86
2020-07-29 19:00:00 -- 10 Sur 13 Sur 0 -- -- 80
2020-07-29 18:00:00 -- 10 Sur 16 Sur 0 -- -- 77
2020-07-29 17:00:00 -- 9 Sur 14 Sur 0 -- -- 76
2020-07-29 16:00:00 -- 9 Sur 14 Sur 0 -- -- 78
2020-07-29 15:00:00 -- 8 Sur 13 Sur 0 -- -- 76
2020-07-29 14:00:00 -- 8 Sur 14 Sur 0 -- -- 78
2020-07-29 13:00:00 -- 10 Sur 16 Sudeste 0 -- -- 80
2020-07-29 12:00:00 -- 12 Sudeste 24 Sudeste 0 -- -- 84
2020-07-29 11:00:00 -- 21 Sudeste 27 Sudeste 0 -- -- 85
2020-07-29 10:00:00 -- 10 Sur 24 Sudeste 0 -- -- 74
2020-07-29 09:00:00 -- 3 Sudeste 8 Sudeste 0 -- -- 67
2020-07-29 08:00:00 -- 2 Noroeste 8 Norte 0 -- -- 72
2020-07-29 07:00:00 -- 0 Calma 3 Nordeste 0 -- -- 73
2020-07-29 06:00:00 -- 0 Calma 4 Nordeste 0 -- -- 78
2020-07-29 05:00:00 -- 0 Calma 4 Este 0 -- -- 81
2020-07-29 04:00:00 -- 0 Calma 6 Noroeste -- -- -- 82
2020-07-29 03:00:00 -- 2 Este 6 Sudeste 0 -- -- 84
2020-07-29 02:00:00 -- 0 Calma 6 Sudeste 0 -- -- 86
2020-07-29 01:00:00 -- 0 Calma 5 Noroeste 0 -- -- 89
2020-07-29 00:00:00 -- 0 Calma 6 Sur 0 -- -- 87
2020-07-28 23:00:00 -- 3 Sudoeste 8 Sudoeste 0 -- -- 86
2020-07-28 22:00:00 -- 3 Oeste 10 Noroeste 0 -- -- 83
2020-07-28 21:00:00 -- 3 Oeste 15 Oeste 0 -- -- 81
2020-07-28 20:00:00 -- 6 Oeste 15 Sudoeste 0 -- -- 72
2020-07-28 19:00:00 -- 10 Sudoeste 17 Sudoeste 0 -- -- 76
2020-07-28 18:00:00 -- 9 Sudoeste 17 Sudoeste 0 -- -- 74
2020-07-28 17:00:00 -- 9 Sudoeste 17 Sur 0 -- -- 74
2020-07-28 16:00:00 -- 10 Sudoeste 17 Sudoeste 0 -- -- 77
2020-07-28 15:00:00 -- 8 Sudoeste 16 Sudoeste 0 -- -- 73
2020-07-28 14:00:00 -- 11 Sudoeste 18 Sudoeste 0 -- -- 78
2020-07-28 13:00:00 -- 9 Sudoeste 17 Sudoeste 0 -- -- 77
2020-07-28 12:00:00 -- 9 Sudoeste 18 Sudoeste 0 -- -- 78
2020-07-28 11:00:00 -- 9 Sudoeste 17 Sudoeste 0 -- -- 76
2020-07-28 10:00:00 -- 5 Oeste 11 Oeste 0 -- -- 77
2020-07-28 09:00:00 -- 3 Nordeste 6 Norte 0 -- -- 79
2020-07-28 08:00:00 -- 0 Calma 8 Nordeste 0 -- -- 85
2020-07-28 07:00:00 -- 0 Calma 6 Nordeste 0 -- -- 87
2020-07-28 06:00:00 -- 0 Calma 10 Noroeste 0 -- -- 86
2020-07-28 05:00:00 -- 6 Noroeste 15 Oeste 0 -- -- 85
2020-07-28 04:00:00 -- 5 Oeste 9 Noroeste 0 -- -- 83
2020-07-28 03:00:00 -- 4 Nordeste 6 Nordeste 0 -- -- 83
2020-07-28 02:00:00 -- 3 Oeste 10 Noroeste 0 -- -- 82
2020-07-28 01:00:00 -- 5 Noroeste 9 Noroeste 0 -- -- 81
2020-07-28 00:00:00 -- 3 Norte 9 Oeste 0 -- -- 84
2020-07-27 23:00:00 -- 4 Noroeste 10 Oeste 0 -- -- 83
2020-07-27 22:00:00 -- 3 Oeste 11 Oeste 0 -- -- 80
2020-07-27 21:00:00 -- 6 Oeste 17 Oeste 0 -- -- 79
2020-07-27 20:00:00 -- 8 Oeste 18 Oeste 0 -- -- 71
2020-07-27 19:00:00 -- 8 Sudoeste 14 Sudoeste 0 -- -- 71
2020-07-27 18:00:00 -- 6 Sudoeste 10 Sudoeste 0 -- -- 70
2020-07-27 17:00:00 -- 6 Sudoeste 13 Sudoeste 0 -- -- 69
2020-07-27 16:00:00 -- 8 Sudoeste 16 Sudoeste 0 -- -- 70
2020-07-27 15:00:00 -- 8 Sudoeste 20 Sudoeste 0 -- -- 70
2020-07-27 14:00:00 -- 11 Sudoeste 20 Sudoeste 0 -- -- 71
2020-07-27 13:00:00 -- 8 Sudoeste 14 Sur 0 -- -- 73
2020-07-27 12:00:00 -- 6 Sur 13 Oeste 0 -- -- 76
2020-07-27 09:00:00 -- -- -- -- -- -- -- -- --
2020-07-27 08:00:00 -- -- -- -- -- -- -- -- --
2020-07-27 07:00:00 -- 4 Este 8 Este 0.2 -- -- 88
2020-07-27 06:00:00 -- 4 Nordeste 14 Sudoeste 0 -- -- 88
2020-07-27 05:00:00 -- 3 Sudoeste 10 Nordeste 0 -- -- 86
2020-07-27 04:00:00 -- 3 Este 7 Este 0 -- -- 87
2020-07-27 03:00:00 -- 2 Oeste 7 Sudoeste 0 -- -- 85
2020-07-27 02:00:00 -- 0 Calma 15 Oeste 0 -- -- 84
2020-07-27 01:00:00 -- 5 Noroeste 11 Norte 0 -- -- 83
2020-07-27 00:00:00 -- 6 Norte 18 Noroeste 0 -- -- 85
2020-07-26 23:00:00 -- 3 Este 12 Este 0 -- -- 86
2020-07-26 22:00:00 -- 5 Sudeste 8 Sudeste 0 -- -- 85
2020-07-26 21:00:00 -- 4 Sur 13 Sudoeste 0 -- -- 80
2020-07-26 20:00:00 -- 7 Sudoeste 17 Sudoeste 0 -- -- 77
2020-07-26 19:00:00 -- 6 Sudoeste 15 Sudoeste 0 -- -- 74
2020-07-26 18:00:00 -- 8 Sur 13 Sudoeste 0 -- -- 75
2020-07-26 17:00:00 -- 7 Sur 13 Sur 0 -- -- 75
2020-07-26 16:00:00 -- 8 Sur 14 Sur 0 -- -- 77
2020-07-26 15:00:00 -- 7 Sudoeste 14 Sur 0 -- -- 75
2020-07-26 14:00:00 -- 10 Sur 15 Sur 0 -- -- 76
2020-07-26 13:00:00 -- 6 Sur 14 Sudoeste 0 -- -- 74
2020-07-26 12:00:00 -- 8 Sur 14 Sur 0 -- -- 73
2020-07-26 11:00:00 -- 7 Sur 10 Sur 0 -- -- 73
2020-07-26 10:00:00 -- 6 Sudeste 9 Sudeste 0 -- -- 78
2020-07-26 09:00:00 -- 5 Sudeste 9 Sudeste 0 -- -- 73
2020-07-26 08:00:00 -- 3 Nordeste 5 Nordeste 0 -- -- 80
2020-07-26 07:00:00 -- 0 Calma 5 Norte 0 -- -- 80
2020-07-26 06:00:00 -- 2 Sur 3 Sudeste 0 -- -- 78
2020-07-26 05:00:00 -- 2 Noroeste 6 Norte 0 -- -- 73
2020-07-26 04:00:00 -- 3 Nordeste 7 Sudeste 0 -- -- 76
2020-07-26 03:00:00 -- 0 Calma 6 Nordeste 0 -- -- 79
2020-07-26 02:00:00 -- 0 Calma 5 Nordeste 0 -- -- 80
2020-07-26 01:00:00 -- 2 Este 5 Nordeste 0 -- -- 82
2020-07-26 00:00:00 -- 3 Nordeste 5 Sudoeste 0 -- -- 82
2020-07-25 23:00:00 -- 3 Sudoeste 10 Oeste 0 -- -- 80
2020-07-25 22:00:00 -- 7 Noroeste 12 Oeste 0 -- -- 75
2020-07-25 21:00:00 -- 8 Oeste 15 Oeste 0 -- -- 70
2020-07-25 20:00:00 -- 8 Sudoeste 14 Sudoeste 0 -- -- 70
2020-07-25 19:00:00 -- 5 Sudoeste 13 Sudoeste 0 -- -- 70
2020-07-25 18:00:00 -- 5 Sur 11 Sur 0 -- -- 71
2020-07-25 17:00:00 -- 8 Sur 14 Sur 0 -- -- 72
2020-07-25 16:00:00 -- 10 Sur 16 Sur 0 -- -- 72
2020-07-25 15:00:00 -- 8 Sur 14 Sudoeste 0 -- -- 66
2020-07-25 14:00:00 -- 8 Sudoeste 28 Sudeste 0 -- -- 69
2020-07-25 13:00:00 -- 17 Sur 30 Sudeste 0 -- -- 75
2020-07-25 12:00:00 -- 22 Sudeste 28 Sudeste 0 -- -- 70
2020-07-25 11:00:00 -- 18 Sudeste 23 Sudeste 0.2 -- -- 79
2020-07-25 10:00:00 -- 2 Sudeste 9 Oeste 0 -- -- 73
2020-07-25 09:00:00 -- 0 Calma 5 Este 0 -- -- 76
2020-07-25 08:00:00 -- 3 Sudeste 6 Este 0 -- -- 84
2020-07-25 07:00:00 -- 0 Calma 6 Oeste 0.2 -- -- 85
2020-07-25 06:00:00 -- 3 Norte 4 Norte 0 -- -- 83
2020-07-25 05:00:00 -- 3 Nordeste 6 Nordeste 0 -- -- 86
2020-07-25 04:00:00 -- 2 Noroeste 6 Noroeste 0 -- -- 84
2020-07-25 03:00:00 -- 3 Norte 5 Norte 0 -- -- 87
2020-07-25 02:00:00 -- 0 Calma 5 Nordeste 0 -- -- 86
2020-07-25 01:00:00 -- 3 Este 5 Este 0 -- -- 85
2020-07-25 00:00:00 -- 2 Norte 7 Noroeste 0 -- -- 82
2020-07-24 23:00:00 -- 4 Oeste 7 Sudoeste 0 -- -- 83
2020-07-24 22:00:00 -- 3 Sudoeste 6 Sur 0 -- -- 82
2020-07-24 21:00:00 -- 4 Sudoeste 10 Sur 0 -- -- 77
2020-07-24 20:00:00 -- 5 Sudoeste 14 Sudoeste 0 -- -- 73
2020-07-24 19:00:00 -- 8 Sudoeste 14 Sudoeste 0 -- -- 69
2020-07-24 18:00:00 -- 6 Sudoeste 12 Sudoeste 0 -- -- 66
2020-07-24 17:00:00 -- 7 Sudoeste 14 Sudoeste 0 -- -- 67
2020-07-24 16:00:00 -- 7 Sudoeste 12 Sudoeste 0 -- -- 72
2020-07-24 15:00:00 -- 6 Sudoeste 12 Sudoeste 0 -- -- 71
2020-07-24 14:00:00 -- 6 Sur 12 Sudoeste 0 -- -- 71
2020-07-24 13:00:00 -- 6 Sudoeste 12 Sudoeste 0 -- -- 76
2020-07-24 12:00:00 -- 8 Sur 14 Sur 0 -- -- 81
2020-07-24 11:00:00 -- 8 Sur 11 Sur 0 -- -- 76
2020-07-24 10:00:00 -- 5 Sudeste 9 Sudeste 0 -- -- 81
2020-07-24 09:00:00 -- 3 Este 5 Este 0 -- -- 77
2020-07-24 08:00:00 -- 0 Calma 4 Noroeste 0 -- -- 80
2020-07-24 07:00:00 -- 2 Noroeste 5 Nordeste 0 -- -- 77
2020-07-24 06:00:00 -- 3 Nordeste 7 Nordeste 0 -- -- 78
2020-07-24 05:00:00 -- 2 Nordeste 6 Nordeste 0 -- -- 80
2020-07-24 04:00:00 -- 0 Calma 4 Norte 0 -- -- 78
2020-07-24 03:00:00 -- 0 Calma 6 Nordeste 0 -- -- 80
2020-07-24 02:00:00 -- 2 Noroeste 5 Oeste 0 -- -- 79
2020-07-24 01:00:00 -- 2 Noroeste 5 Noroeste 0 -- -- 77
2020-07-24 00:00:00 -- 2 Noroeste 7 Oeste 0 -- -- 76
2020-07-23 23:00:00 -- 4 Sudoeste 6 Sudoeste 0 -- -- 74
2020-07-23 22:00:00 -- 0 Calma 5 Nordeste 0 -- -- 75
2020-07-23 21:00:00 -- 4 Oeste 11 Sudoeste 0 -- -- 71
2020-07-23 20:00:00 -- 6 Sudoeste 10 Sudoeste 0 -- -- 70
2020-07-23 19:00:00 -- 5 Sudoeste 12 Sudoeste 0 -- -- 71
2020-07-23 18:00:00 -- 6 Sudoeste 14 Sudoeste 0 -- -- 70
2020-07-23 17:00:00 -- 9 Sudoeste 13 Sudoeste 0 -- -- 72
2020-07-23 16:00:00 -- 6 Sudoeste 14 Sudoeste 0 -- -- 70
2020-07-23 15:00:00 -- 8 Sudoeste 13 Sudoeste 0 -- -- 72
2020-07-23 14:00:00 -- 9 Sur 14 Sur 0 -- -- 76
2020-07-23 13:00:00 -- 9 Sur 15 Sur 0 -- -- 78
2020-07-23 12:00:00 -- 9 Sur 14 Sudoeste 0 -- -- 78
2020-07-23 11:00:00 -- 7 Sur 11 Sudoeste 0 -- -- 69
2020-07-23 10:00:00 -- 5 Sudoeste 10 Sudoeste 0 -- -- 67
2020-07-23 09:00:00 -- 0 Calma 5 Norte 0 -- -- 71
2020-07-23 08:00:00 -- 0 Calma 5 Noroeste 0 -- -- 85
2020-07-23 07:00:00 -- 4 Noroeste 6 Noroeste 0 -- -- 85
2020-07-23 06:00:00 -- 2 Norte 5 Noroeste 0 -- -- 87
2020-07-23 05:00:00 -- 2 Noroeste 6 Oeste 0 -- -- 87
2020-07-23 04:00:00 -- 3 Noroeste 5 Sudoeste 0 -- -- 86
2020-07-23 03:00:00 -- 2 Sudoeste 6 Oeste 0 -- -- 85
2020-07-23 02:00:00 -- 2 Sur 6 Sur 0 -- -- 84
2020-07-23 01:00:00 -- 4 Sur 9 Sur 0 -- -- 83
2020-07-23 00:00:00 -- 5 Sur 9 Sur 0 -- -- 84
2020-07-22 23:00:00 -- 4 Sur 7 Sur 0 -- -- 81
2020-07-22 22:00:00 -- 3 Sudoeste 6 Sudoeste 0 -- -- 77
2020-07-22 21:00:00 -- 5 Sur 14 Sudoeste 0 -- -- 75
2020-07-22 20:00:00 -- 6 Sudoeste 19 Oeste 0 -- -- 68
2020-07-22 19:00:00 -- 9 Oeste 21 Noroeste 0 -- -- 63
2020-07-22 18:00:00 -- 8 Oeste 21 Oeste 0 -- -- 61
2020-07-22 17:00:00 -- 9 Oeste 23 Sudoeste 0 -- -- 61
2020-07-22 16:00:00 -- 11 Sudoeste 23 Sudoeste 0 -- -- 64
2020-07-22 15:00:00 -- 13 Sudoeste 22 Oeste 0 -- -- 62
2020-07-22 14:00:00 -- 10 Sudoeste 20 Sudoeste 0 -- -- 59
2020-07-22 13:00:00 -- 9 Sudoeste 19 Sur 0 -- -- 58
2020-07-22 12:00:00 -- 8 Sudoeste 20 Oeste 0 -- -- 59
2020-07-22 11:00:00 -- 9 Oeste 19 Oeste 0 -- -- 55
2020-07-22 10:00:00 -- 9 Oeste 19 Oeste 0 -- -- 63
2020-07-22 09:00:00 -- 5 Oeste 9 Oeste 0 -- -- 68
2020-07-22 08:00:00 -- 2 Norte 6 Noroeste 0 -- -- 83
2020-07-22 07:00:00 -- 3 Oeste 6 Noroeste 0 -- -- 83
2020-07-22 06:00:00 -- 3 Norte 10 Noroeste 0 -- -- 83
2020-07-22 05:00:00 -- 6 Oeste 26 Oeste 0 -- -- 82
2020-07-22 04:00:00 -- 12 Oeste 21 Oeste 0 -- -- 83
2020-07-22 03:00:00 -- 9 Oeste 19 Oeste 0 -- -- 83
2020-07-22 02:00:00 -- 6 Oeste 15 Sudoeste 0 -- -- 84
2020-07-22 01:00:00 -- 4 Oeste 6 Oeste 0 -- -- 80
2020-07-22 00:00:00 -- 5 Noroeste 10 Oeste 0 -- -- 77
2020-07-21 23:00:00 -- 3 Norte 10 Este 0 -- -- 78
2020-07-21 22:00:00 -- 7 Sudeste 17 Oeste 0 -- -- 79
2020-07-21 21:00:00 -- 9 Oeste 30 Oeste 0 -- -- 73
2020-07-21 20:00:00 -- 17 Oeste 30 Oeste 0 -- -- 67
2020-07-21 19:00:00 -- 10 Oeste 22 Oeste 0 -- -- 66
2020-07-21 18:00:00 -- 11 Sudoeste 32 Sudoeste 0 -- -- 67
2020-07-21 17:00:00 -- 19 Sudoeste 52 Sudeste 0 -- -- 72
2020-07-21 16:00:00 -- 33 Sudeste 45 Sudeste 0 -- -- 69
2020-07-21 15:00:00 -- 29 Este 44 Sudeste 0 -- -- 59
2020-07-21 14:00:00 -- 27 Sudeste 45 Sudeste 0 -- -- 70
2020-07-21 13:00:00 -- 30 Sudeste 36 Sudeste 0 -- -- 73
2020-07-21 12:00:00 -- 28 Sudeste 36 Sudeste 0 -- -- 70
2020-07-21 11:00:00 -- 17 Sudeste 31 Sur 0 -- -- 68
2020-07-21 10:00:00 -- 15 Sudeste 25 Sur 0 -- -- 60
2020-07-21 09:00:00 -- 4 Norte 23 Sudoeste 0 -- -- 67
2020-07-21 08:00:00 -- 17 Sur 36 Sur 0 -- -- 70
2020-07-21 07:00:00 -- 8 Sudeste 34 Sudeste 0 -- -- 56
2020-07-21 06:00:00 -- 4 Norte 27 Sur 0 -- -- 66
2020-07-21 05:00:00 -- 3 Norte 20 Sur 0 -- -- 66
2020-07-21 04:00:00 -- 14 Sudeste 27 Sudeste 0 -- -- 67
2020-07-21 03:00:00 -- 6 Norte 23 Este 0 -- -- 78
2020-07-21 02:00:00 -- 10 Noroeste 32 Oeste 0 -- -- 81
2020-07-21 01:00:00 -- 12 Oeste 25 Oeste 0 -- -- 80
2020-07-21 00:00:00 -- 4 Noroeste 10 Oeste 0 -- -- 79
2020-07-20 23:00:00 -- 5 Oeste 14 Sudoeste 0 -- -- 79
2020-07-20 22:00:00 -- 8 Sudoeste 14 Sudoeste 0 -- -- 80
2020-07-20 21:00:00 -- 9 Sudeste 27 Sudeste 0 -- -- 76
2020-07-20 20:00:00 -- 15 Sur 23 Sur 0 -- -- 71
2020-07-20 19:00:00 -- 7 Sur 29 Sudeste 0 -- -- 68
2020-07-20 18:00:00 -- 18 Sudeste 26 Sudeste 0 -- -- 74
2020-07-20 17:00:00 -- 22 Sudeste 37 Sudeste 0 -- -- 77
2020-07-20 16:00:00 -- 23 Sudeste 36 Sudeste 0 -- -- 80
2020-07-20 15:00:00 -- 26 Sudeste 39 Sudeste 0 -- -- 82
2020-07-20 14:00:00 -- 30 Sudeste 36 Sudeste 0 -- -- 77
2020-07-20 13:00:00 -- 26 Sudeste 32 Sudeste 0 -- -- 79
2020-07-20 12:00:00 -- 28 Sudeste 38 Sudeste 0 -- -- 76
2020-07-20 11:00:00 -- 8 Sudeste 18 Sur 0 -- -- 67
2020-07-20 10:00:00 -- 3 Sur 7 Sur 0 -- -- 70
2020-07-20 09:00:00 -- 5 Norte 9 Noroeste 0 -- -- 70
2020-07-20 08:00:00 -- 5 Norte 9 Norte 0 -- -- 82
2020-07-20 07:00:00 -- 2 Norte 11 Este 0 -- -- 83
2020-07-20 06:00:00 -- 3 Noroeste 8 Norte 0 -- -- 84
2020-07-20 05:00:00 -- 2 Oeste 5 Sur 0 -- -- 84
2020-07-20 04:00:00 -- 4 Sudeste 7 Este 0 -- -- 85
2020-07-20 03:00:00 -- 3 Norte 8 Norte 0 -- -- 84
2020-07-20 02:00:00 -- 0 Calma 5 Este 0 -- -- 84
2020-07-20 01:00:00 -- 3 Norte 6 Norte 0 -- -- 84
2020-07-20 00:00:00 -- 2 Sur 6 Sudeste 0 -- -- 83
2020-07-19 23:00:00 -- 3 Sur 9 Noroeste 0 -- -- 81
2020-07-19 22:00:00 -- 3 Oeste 8 Sudoeste 0 -- -- 79
2020-07-19 21:00:00 -- 4 Sur 10 Sudoeste 0 -- -- 76
2020-07-19 20:00:00 -- 6 Sudoeste 12 Sur 0 -- -- 72
2020-07-19 19:00:00 -- 5 Sudoeste 13 Sudoeste 0 -- -- 68
2020-07-19 18:00:00 -- 6 Sudoeste 15 Sur 0 -- -- 70
2020-07-19 17:00:00 -- 8 Sur 14 Sur 0 -- -- 70
2020-07-19 16:00:00 -- 7 Sur 15 Sur 0 -- -- 70
2020-07-19 15:00:00 -- 11 Sur 16 Sur 0 -- -- 68
2020-07-19 14:00:00 -- 11 Sur 15 Sur 0 -- -- 66
2020-07-19 13:00:00 -- 9 Sur 14 Sur 0 -- -- 68
2020-07-19 12:00:00 -- 10 Sur 15 Sur 0 -- -- 69
2020-07-19 11:00:00 -- 9 Sur 13 Sur 0 -- -- 68
2020-07-19 10:00:00 -- 5 Sur 9 Sudoeste 0 -- -- 71
2020-07-19 09:00:00 -- 4 Sudeste 6 Sudeste 0 -- -- 77
2020-07-19 08:00:00 -- 3 Nordeste 4 Nordeste 0 -- -- 84
2020-07-19 07:00:00 -- 0 Calma 4 Norte 0 -- -- 85
2020-07-19 06:00:00 -- 2 Sur 5 Sur 0 -- -- 84
2020-07-19 05:00:00 -- 2 Sudoeste 6 Sudeste 0 -- -- 83
2020-07-19 04:00:00 -- 5 Sur 10 Sudeste 0 -- -- 83
2020-07-19 03:00:00 -- 5 Sudeste 9 Sudeste 0 -- -- 84
2020-07-19 02:00:00 -- 7 Sudeste 10 Sudeste 0 -- -- 83
2020-07-19 01:00:00 -- 4 Sudeste 10 Sudeste 0 -- -- 82
2020-07-19 00:00:00 -- 5 Sur 10 Sudeste 0 -- -- 81
2020-07-18 23:00:00 -- 6 Sudeste 9 Sudeste 0 -- -- 80
2020-07-18 22:00:00 -- 5 Sur 8 Sur 0 -- -- 78
2020-07-18 21:00:00 -- 5 Sur 9 Sur 0 -- -- 74
2020-07-18 20:00:00 -- 6 Sur 11 Sur 0 -- -- 70
2020-07-18 19:00:00 -- 6 Sur 14 Sur 0 -- -- 69
2020-07-18 18:00:00 -- 8 Sur 13 Sudoeste 0 -- -- 69
2020-07-18 17:00:00 -- 7 Sudoeste 14 Sur 0 -- -- 68
2020-07-18 16:00:00 -- 8 Sur 14 Sur 0 -- -- 68
2020-07-18 15:00:00 -- 8 Sur 15 Sudoeste 0 -- -- 66
2020-07-18 14:00:00 -- 10 Sur 15 Sur 0 -- -- 61
2020-07-18 13:00:00 -- 10 Sur 15 Sur 0 -- -- 57
2020-07-18 12:00:00 -- 6 Sudoeste 13 Sur 0 -- -- 57
2020-07-18 11:00:00 -- 7 Sur 11 Sudoeste 0 -- -- 58
2020-07-18 10:00:00 -- 4 Sudeste 8 Sur 0 -- -- 58
2020-07-18 09:00:00 -- 2 Nordeste 6 Nordeste 0 -- -- 66
2020-07-18 08:00:00 -- 4 Nordeste 8 Nordeste 0 -- -- 77
2020-07-18 07:00:00 -- 0 Calma 5 Este 0 -- -- 80
2020-07-18 06:00:00 -- 3 Este 5 Oeste 0 -- -- 81
2020-07-18 05:00:00 -- 3 Norte 8 Noroeste 0 -- -- 79
2020-07-18 04:00:00 -- 3 Este 9 Nordeste 0 -- -- 81
2020-07-18 03:00:00 -- 5 Este 7 Este 0 -- -- 82
2020-07-18 02:00:00 -- 0 Calma 8 Sudeste 0 -- -- 82
2020-07-18 01:00:00 -- 6 Sudeste 14 Sudeste 0 -- -- 81
2020-07-18 00:00:00 -- 6 Sudeste 10 Sudeste 0 -- -- 83
2020-07-17 23:00:00 -- 8 Sudeste 12 Sudeste 0 -- -- 83
2020-07-17 22:00:00 -- 4 Sur 6 Sudeste 0 -- -- 81
2020-07-17 21:00:00 -- 4 Sur 9 Sur 0 -- -- 78
2020-07-17 20:00:00 -- 6 Sur 10 Sudoeste 0 -- -- 73
2020-07-17 19:00:00 -- 5 Sudoeste 16 Sur 0 -- -- 70
2020-07-17 18:00:00 -- 12 Sur 21 Sudeste 0 -- -- 71
2020-07-17 17:00:00 -- 17 Sudeste 23 Sudeste 0 -- -- 78
2020-07-17 16:00:00 -- 16 Sudeste 21 Sudeste 0 -- -- 74
2020-07-17 15:00:00 -- 11 Sur 17 Sudoeste 0 -- -- 63
2020-07-17 14:00:00 -- 9 Sudoeste 16 Sudoeste 0 -- -- 62
2020-07-17 13:00:00 -- 14 Sur 25 Sur 0 -- -- 63
2020-07-17 12:00:00 -- 18 Sudeste 22 Sudeste 0 -- -- 68
2020-07-17 11:00:00 -- 12 Sur 19 Sur 0 -- -- 65
2020-07-17 10:00:00 -- 6 Sudoeste 12 Sudoeste 0 -- -- 63
2020-07-17 09:00:00 -- 0 Calma 7 Nordeste 0 -- -- 62
2020-07-17 08:00:00 -- 3 Nordeste 6 Nordeste 0 -- -- 77
2020-07-17 07:00:00 -- 5 Nordeste 7 Nordeste 0 -- -- 82
2020-07-17 06:00:00 -- 3 Norte 8 Noroeste 0 -- -- 81
2020-07-17 05:00:00 -- 4 Oeste 8 Noroeste 0 -- -- 80
2020-07-17 04:00:00 -- 0 Calma 5 Norte 0 -- -- 82
2020-07-17 03:00:00 -- 2 Norte 5 Noroeste 0 -- -- 82
2020-07-17 02:00:00 -- 2 Sudeste 5 Sudeste 0 -- -- 83
2020-07-17 01:00:00 -- 0 Calma 5 Nordeste 0 -- -- 79
2020-07-17 00:00:00 -- 3 Nordeste 8 Sudeste 0 -- -- 78
2020-07-16 23:00:00 -- 7 Sudeste 8 Sudeste 0 -- -- 78
2020-07-16 22:00:00 -- 3 Sudoeste 8 Sudoeste 0 -- -- 72
2020-07-16 21:00:00 -- 5 Sudoeste 13 Sudoeste 0 -- -- 68
2020-07-16 20:00:00 -- 7 Sudoeste 13 Sudoeste 0 -- -- 63
2020-07-16 19:00:00 -- 8 Sudoeste 17 Sudoeste 0 -- -- 61
2020-07-16 18:00:00 -- 9 Sudoeste 15 Sudoeste 0 -- -- 59
2020-07-16 17:00:00 -- 7 Sudoeste 18 Sudoeste 0 -- -- 59
2020-07-16 16:00:00 -- 9 Oeste 26 Sudeste 0 -- -- 56
2020-07-16 15:00:00 -- 22 Sudeste 34 Sudeste 0 -- -- 67
2020-07-16 14:00:00 -- 25 Sudeste 36 Sudeste 0 -- -- 65
2020-07-16 13:00:00 -- 8 Sudoeste 15 Sudoeste 0 -- -- 45
2020-07-16 12:00:00 -- 5 Sudoeste 12 Sudoeste 0 -- -- 43
2020-07-16 11:00:00 -- 6 Sudoeste 12 Sudoeste 0 -- -- 54
2020-07-16 10:00:00 -- 6 Sur 8 Sur 0 -- -- 59
2020-07-16 09:00:00 -- 3 Este 5 Este 0 -- -- 71
2020-07-16 08:00:00 -- 3 Norte 5 Nordeste 0 -- -- 81
2020-07-16 07:00:00 -- 3 Nordeste 4 Nordeste 0 -- -- 85
2020-07-16 06:00:00 -- 2 Noroeste 4 Noroeste 0 -- -- 84
2020-07-16 05:00:00 -- 0 Calma 5 Sudeste 0 -- -- 84
2020-07-16 04:00:00 -- 3 Noroeste 5 Noroeste 0 -- -- 83
2020-07-16 03:00:00 -- 0 Calma 6 Este 0 -- -- 82
2020-07-16 02:00:00 -- 3 Este 5 Este 0 -- -- 82
2020-07-16 01:00:00 -- 4 Noroeste 6 Oeste 0 -- -- 80
2020-07-16 00:00:00 -- 3 Sudoeste 6 Sudoeste 0 -- -- 79
2020-07-15 23:00:00 -- 4 Oeste 12 Oeste 0 -- -- 78
2020-07-15 22:00:00 -- 5 Sudoeste 14 Oeste 0 -- -- 78
2020-07-15 21:00:00 -- 6 Oeste 22 Oeste 0 -- -- 72
2020-07-15 20:00:00 -- 11 Sudoeste 28 Sudeste 0 -- -- 71
2020-07-15 19:00:00 -- 20 Sudeste 30 Sudeste 0 -- -- 72
2020-07-15 18:00:00 -- 17 Sudeste 35 Sudeste 0 -- -- 62
2020-07-15 17:00:00 -- 26 Sudeste 33 Sudeste 0 -- -- 72
2020-07-15 16:00:00 -- 17 Sudeste 25 Sur 0 -- -- 68
2020-07-15 15:00:00 -- 15 Sur 24 Sudeste 0 -- -- 65
2020-07-15 14:00:00 -- 21 Sudeste 26 Sudeste 0 -- -- 72
2020-07-15 13:00:00 -- 8 Sudoeste 14 Sudoeste 0 -- -- 58
2020-07-15 12:00:00 -- 7 Sudoeste 13 Sudoeste 0 -- -- 58
2020-07-15 11:00:00 -- 6 Sudoeste 10 Sudoeste 0 -- -- 58
2020-07-15 10:00:00 -- 4 Sur 8 Sur 0 -- -- 64
2020-07-15 09:00:00 -- 5 Sudeste 8 Sudeste 0 -- -- 76
2020-07-15 08:00:00 -- 2 Este 9 Noroeste 0 -- -- 85
2020-07-15 07:00:00 -- 4 Norte 7 Nordeste 0 -- -- 88
2020-07-15 06:00:00 -- 2 Norte 4 Norte 0 -- -- 89
2020-07-15 05:00:00 -- 2 Norte 5 Noroeste 0 -- -- 89
2020-07-15 04:00:00 -- 0 Calma 5 Nordeste 0 -- -- 88
2020-07-15 03:00:00 -- 2 Oeste 9 Noroeste 0 -- -- 88
2020-07-15 02:00:00 -- 4 Noroeste 8 Sudeste 0 -- -- 87
2020-07-15 01:00:00 -- 8 Sudeste 16 Sudeste 0 -- -- 88
2020-07-15 00:00:00 -- 15 Sudeste 19 Sudeste 0 -- -- 86
2020-07-14 23:00:00 -- 12 Sudeste 21 Sudeste 0 -- -- 84
2020-07-14 22:00:00 -- 16 Sudeste 21 Sudeste 0 -- -- 84
2020-07-14 21:00:00 -- 12 Sudeste 17 Sudeste 0 -- -- 82
2020-07-14 20:00:00 -- 11 Sudeste 23 Sudeste 0 -- -- 83
2020-07-14 19:00:00 -- 14 Sudeste 26 Sudeste 0 -- -- 82
2020-07-14 18:00:00 -- 14 Sur 30 Sudeste 0 -- -- 79
2020-07-14 17:00:00 -- 18 Sudeste 28 Sudeste 0 -- -- 82
2020-07-14 16:00:00 -- 19 Sudeste 25 Sudeste 0 -- -- 83
2020-07-14 15:00:00 -- 18 Sudeste 22 Sudeste 0 -- -- 82
2020-07-14 14:00:00 -- 16 Sudeste 24 Sudeste 0 -- -- 82
2020-07-14 13:00:00 -- 15 Sudeste 21 Sudeste 0 -- -- 79
2020-07-14 12:00:00 -- 14 Sudeste 20 Sudeste 0 -- -- 70
2020-07-14 11:00:00 -- 10 Sudeste 16 Sur 0 -- -- 71
2020-07-14 10:00:00 -- 8 Sudeste 12 Sudeste 0 -- -- 62
2020-07-14 09:00:00 -- 0 Calma 5 Este 0 -- -- 53
2020-07-14 08:00:00 -- 3 Este 8 Nordeste 0 -- -- 66
2020-07-14 07:00:00 -- 4 Este 6 Nordeste 0 -- -- 72
2020-07-14 06:00:00 -- 0 Calma 4 Este 0 -- -- 72
2020-07-14 05:00:00 -- 0 Calma 4 Este 0 -- -- 71
2020-07-14 04:00:00 -- 0 Calma 4 Nordeste 0 -- -- 72
2020-07-14 03:00:00 -- 0 Calma 5 Este 0 -- -- 73
2020-07-14 02:00:00 -- 3 Este 5 Este 0 -- -- 73
2020-07-14 01:00:00 -- 0 Calma 5 Sudoeste 0 -- -- 70
2020-07-14 00:00:00 -- 0 Calma 6 Sudeste 0 -- -- 74
2020-07-13 23:00:00 -- 3 Este 6 Noroeste 0 -- -- 73
2020-07-13 22:00:00 -- 3 Sudoeste 10 Oeste 0 -- -- 65
2020-07-13 21:00:00 -- 5 Oeste 10 Sudoeste 0 -- -- 59
2020-07-13 20:00:00 -- 6 Sudoeste 16 Sudoeste 0 -- -- 58
2020-07-13 19:00:00 -- 11 Sudoeste 17 Sudoeste 0 -- -- 63
2020-07-13 18:00:00 -- 9 Sudoeste 20 Sudoeste 0 -- -- 57
2020-07-13 17:00:00 -- 14 Sudoeste 20 Sudoeste 0 -- -- 64
2020-07-13 16:00:00 -- 13 Sudoeste 21 Sudoeste 0 -- -- 60
2020-07-13 15:00:00 -- 12 Sudoeste 28 Oeste 0 -- -- 61
2020-07-13 14:00:00 -- 10 Sudoeste 23 Oeste 0 -- -- 59
2020-07-13 13:00:00 -- 9 Oeste 22 Oeste 0 -- -- 54
2020-07-13 12:00:00 -- 10 Sudoeste 17 Sudoeste 0 -- -- 65
2020-07-13 11:00:00 -- 10 Sudoeste 16 Sudoeste 0 -- -- 67
2020-07-13 10:00:00 -- 8 Sudoeste 13 Sudoeste 0 -- -- 64
2020-07-13 09:00:00 -- 0 Calma 5 Sudeste 0 -- -- 70
2020-07-13 08:00:00 -- 0 Calma 5 Noroeste 0 -- -- 85
2020-07-13 07:00:00 -- 0 Calma 5 Norte 0 -- -- 87
2020-07-13 06:00:00 -- 0 Calma 8 Oeste 0 -- -- 85
2020-07-13 05:00:00 -- 0 Calma 5 Norte 0 -- -- 85
2020-07-13 04:00:00 -- 0 Calma 7 Noroeste 0 -- -- 84
2020-07-13 03:00:00 -- 5 Noroeste 12 Noroeste 0 -- -- 83
2020-07-13 02:00:00 -- 3 Norte 5 Noroeste 0 -- -- 84
2020-07-13 01:00:00 -- 2 Norte 9 Oeste 0 -- -- 83
2020-07-13 00:00:00 -- 4 Oeste 10 Noroeste 0 -- -- 81
2020-07-12 23:00:00 -- 5 Oeste 9 Oeste 0 -- -- 81
2020-07-12 22:00:00 -- 3 Sudoeste 12 Sudoeste 0 -- -- 80
2020-07-12 21:00:00 -- 6 Sudoeste 19 Sudoeste 0 -- -- 79
2020-07-12 20:00:00 -- 8 Sudoeste 21 Sudeste 0 -- -- 72
2020-07-12 19:00:00 -- 17 Sudeste 29 Sudeste 0 -- -- 71
2020-07-12 18:00:00 -- 14 Sudeste 33 Sudeste 0 -- -- 68
2020-07-12 17:00:00 -- 22 Sudeste 34 Sudeste 0 -- -- 70
2020-07-12 16:00:00 -- 28 Sudeste 51 Sudeste 0 -- -- 71
2020-07-12 15:00:00 -- 36 Sudeste 52 Sudeste 0 -- -- 70
2020-07-12 14:00:00 -- 27 Sudeste 45 Sudeste 0 -- -- 65
2020-07-12 13:00:00 -- 33 Sudeste 53 Sudeste 0 -- -- 65
2020-07-12 12:00:00 -- 33 Sudeste 49 Sudeste 0 -- -- 68
2020-07-12 11:00:00 -- 22 Sudeste 29 Sudeste 0 -- -- 76
2020-07-12 10:00:00 -- 6 Sur 11 Sur 0 -- -- 78
2020-07-12 09:00:00 -- 2 Sudeste 12 Oeste 0 -- -- 82
2020-07-12 08:00:00 -- 10 Oeste 31 Oeste 0 -- -- 87
2020-07-12 07:00:00 -- 10 Sudoeste 21 Sudoeste 0 -- -- 80
2020-07-12 06:00:00 -- 4 Sudeste 16 Noroeste 0 -- -- 81
2020-07-12 05:00:00 -- 8 Oeste 23 Oeste 0 -- -- 83
2020-07-12 04:00:00 -- 8 Nordeste 26 Oeste 0 -- -- 87
2020-07-12 03:00:00 -- 6 Sudoeste 18 Sudoeste 0 -- -- 85
2020-07-12 02:00:00 -- 8 Norte 17 Norte 0 -- -- 83
2020-07-12 01:00:00 -- 8 Oeste 16 Oeste 0 -- -- 82
2020-07-12 00:00:00 -- 3 Noroeste 13 Oeste 0 -- -- 81
2020-07-11 23:00:00 -- 8 Oeste 17 Oeste 0 -- -- 82
2020-07-11 22:00:00 -- 6 Oeste 18 Sudoeste 0 -- -- 81
2020-07-11 21:00:00 -- 9 Sur 22 Sudeste 0 -- -- 81
2020-07-11 20:00:00 -- 15 Sur 36 Sudeste 0 -- -- 79
2020-07-11 19:00:00 -- 24 Sudeste 36 Sudeste 0 -- -- 72
2020-07-11 18:00:00 -- 27 Sudeste 44 Sudeste 0 -- -- 70
2020-07-11 17:00:00 -- 25 Sudeste 38 Sudeste 0 -- -- 69
2020-07-11 16:00:00 -- 26 Sudeste 37 Sudeste 0 -- -- 77
2020-07-11 15:00:00 -- 31 Sudeste 37 Sudeste 0 -- -- 81
2020-07-11 14:00:00 -- 27 Sudeste 33 Sudeste 0 -- -- 81
2020-07-11 13:00:00 -- 6 Sudoeste 15 Sudeste 0 -- -- 66
2020-07-11 12:00:00 -- 10 Sudeste 24 Sudeste 0 -- -- 75
2020-07-11 11:00:00 -- 18 Sudeste 24 Sudeste 0 -- -- 79
2020-07-11 10:00:00 -- 12 Sudeste 19 Sudeste 0 -- -- 73
2020-07-11 09:00:00 -- 0 Calma 8 Sudeste 0 -- -- 61
2020-07-11 08:00:00 -- 4 Nordeste 6 Nordeste 0 -- -- 72
2020-07-11 07:00:00 -- 0 Calma 4 Nordeste 0 -- -- 78
2020-07-11 06:00:00 -- 0 Calma 5 Sudeste 0 -- -- 80
2020-07-11 05:00:00 -- 0 Calma 5 Norte 0 -- -- 80
2020-07-11 04:00:00 -- 2 Noroeste 4 Noroeste 0 -- -- 81
2020-07-11 03:00:00 -- 3 Sudeste 4 Este 0 -- -- 83
2020-07-11 02:00:00 -- 2 Norte 5 Sudeste 0 -- -- 83
2020-07-11 01:00:00 -- 4 Sudeste 6 Sudeste 0 -- -- 84
2020-07-11 00:00:00 -- 0 Calma 6 Sur 0 -- -- 82
2020-07-10 23:00:00 -- 2 Sur 8 Noroeste 0 -- -- 75
2020-07-10 22:00:00 -- 2 Noroeste 9 Oeste 0 -- -- 71
2020-07-10 21:00:00 -- 6 Sudoeste 10 Sudoeste 0 -- -- 70
2020-07-10 20:00:00 -- 5 Sudoeste 9 Sudoeste 0 -- -- 63
2020-07-10 19:00:00 -- 6 Sudoeste 12 Sudoeste 0 -- -- 61
2020-07-10 18:00:00 -- 7 Sudoeste 13 Sudoeste 0 -- -- 60
2020-07-10 17:00:00 -- 8 Sudoeste 13 Sudoeste 0 -- -- 57
2020-07-10 16:00:00 -- 7 Sudoeste 12 Sudoeste 0 -- -- 54
2020-07-10 15:00:00 -- 7 Sudoeste 12 Sudoeste 0 -- -- 58
2020-07-10 14:00:00 -- 8 Sur 13 Sur 0 -- -- 64
2020-07-10 13:00:00 -- 7 Sur 11 Sur 0 -- -- 58
2020-07-10 12:00:00 -- 7 Sudeste 12 Sudoeste 0 -- -- 60
2020-07-10 11:00:00 -- 9 Sudoeste 13 Sudoeste 0 -- -- 47
2020-07-10 10:00:00 -- 4 Sudoeste 8 Sudoeste 0 -- -- 48
2020-07-10 09:00:00 -- 2 Sudeste 4 Nordeste 0 -- -- 61
2020-07-10 08:00:00 -- 2 Este 3 Este 0 -- -- 76
2020-07-10 07:00:00 -- 0 Calma 4 Oeste 0 -- -- 81
2020-07-10 06:00:00 -- 0 Calma 3 Sudeste 0 -- -- 81
2020-07-10 05:00:00 -- 0 Calma 4 Nordeste 0 -- -- 78
2020-07-10 04:00:00 -- 0 Calma 4 Este 0 -- -- 76
2020-07-10 03:00:00 -- 3 Sudeste 5 Sudeste 0 -- -- 77
2020-07-10 02:00:00 -- 3 Este 4 Sudeste 0 -- -- 79
2020-07-10 01:00:00 -- 3 Sudeste 5 Noroeste 0 -- -- 77
2020-07-10 00:00:00 -- 2 Noroeste 6 Sudeste 0 -- -- 71
2020-07-09 23:00:00 -- 4 Sudeste 5 Sudeste 0 -- -- 74
2020-07-09 22:00:00 -- 3 Norte 12 Oeste 0 -- -- 64
2020-07-09 21:00:00 -- 5 Oeste 11 Oeste 0 -- -- 59
2020-07-09 20:00:00 -- 5 Sudoeste 11 Oeste 0 -- -- 61
2020-07-09 19:00:00 -- 6 Sudoeste 12 Sudoeste 0 -- -- 67
2020-07-09 18:00:00 -- 6 Sur 10 Sur 0 -- -- 69
2020-07-09 17:00:00 -- 6 Sur 13 Sudoeste 0 -- -- 68
2020-07-09 16:00:00 -- 6 Sudoeste 16 Sur 0 -- -- 67
2020-07-09 15:00:00 -- 8 Sudoeste 16 Sudoeste 0 -- -- 64
2020-07-09 14:00:00 -- 7 Sudoeste 15 Sudoeste 0 -- -- 61
2020-07-09 13:00:00 -- 7 Sudoeste 17 Sudoeste 0 -- -- 58
2020-07-09 12:00:00 -- 5 Sur 14 Sudoeste 0 -- -- 60
2020-07-09 11:00:00 -- 6 Sudoeste 14 Sudoeste 0 -- -- 56
2020-07-09 10:00:00 -- 5 Sudoeste 13 Sudoeste 0 -- -- 53
2020-07-09 09:00:00 -- 4 Oeste 9 Oeste 0 -- -- 60
2020-07-09 08:00:00 -- 0 Calma 14 Oeste 0 -- -- 76
2020-07-09 07:00:00 -- 9 Oeste 18 Oeste 0 -- -- 78
2020-07-09 06:00:00 -- 3 Noroeste 6 Noroeste 0 -- -- 76
2020-07-09 05:00:00 -- 5 Noroeste 10 Noroeste 0 -- -- 75
2020-07-09 04:00:00 -- 2 Oeste 5 Oeste 0 -- -- 77
2020-07-09 03:00:00 -- 0 Calma 6 Norte 0 -- -- 77
2020-07-09 02:00:00 -- 3 Norte 10 Noroeste 0 -- -- 76
2020-07-09 01:00:00 -- 5 Oeste 12 Oeste 0 -- -- 76
2020-07-09 00:00:00 -- 6 Noroeste 9 Noroeste 0 -- -- 76
2020-07-08 23:00:00 -- 3 Oeste 6 Oeste 0 -- -- 73
2020-07-08 22:00:00 -- 3 Oeste 9 Sudoeste 0 -- -- 72
2020-07-08 21:00:00 -- 4 Sudoeste 13 Oeste 0 -- -- 72
2020-07-08 20:00:00 -- 7 Sudoeste 23 Oeste 0 -- -- 69
2020-07-08 19:00:00 -- 8 Oeste 25 Oeste 0 -- -- 57
2020-07-08 18:00:00 -- 9 Sudoeste 26 Sur 0 -- -- 60
2020-07-08 17:00:00 -- 15 Sudoeste 50 Sur 0 -- -- 59
2020-07-08 16:00:00 -- 33 Sudeste 42 Sudeste 0 -- -- 60
2020-07-08 15:00:00 -- 24 Sudeste 40 Sudeste 0 -- -- 41
2020-07-08 14:00:00 -- 27 Sudeste 39 Sudeste 0 -- -- 37
2020-07-08 13:00:00 -- 30 Sudeste 38 Sudeste 0 -- -- 39
2020-07-08 12:00:00 -- 16 Sudeste 26 Sudeste 0 -- -- 39
2020-07-08 11:00:00 -- 5 Oeste 15 Sudoeste 0 -- -- 38
2020-07-08 10:00:00 -- 6 Noroeste 12 Oeste 0 -- -- 40
2020-07-08 09:00:00 -- 3 Norte 26 Sudeste 0 -- -- 52
2020-07-08 08:00:00 -- 2 Este 18 Oeste 0 -- -- 48
2020-07-08 07:00:00 -- 20 Oeste 46 Oeste 0 -- -- 46
2020-07-08 06:00:00 -- 8 Noroeste 14 Noroeste 0 -- -- 61
2020-07-08 05:00:00 -- 7 Noroeste 11 Noroeste 0 -- -- 66
2020-07-08 04:00:00 -- 2 Este 6 Noroeste 0 -- -- 80
2020-07-08 03:00:00 -- 2 Noroeste 5 Noroeste 0 -- -- 75
2020-07-08 02:00:00 -- 0 Calma 6 Sudeste 0 -- -- 77
2020-07-08 01:00:00 -- 0 Calma 3 Nordeste 0 -- -- 74
2020-07-08 00:00:00 -- 0 Calma 6 Noroeste 0 -- -- 77
2020-07-07 23:00:00 -- 0 Calma 5 Norte 0 -- -- 75
2020-07-07 22:00:00 -- 3 Sur 6 Sur 0 -- -- 78
2020-07-07 21:00:00 -- 4 Sur 8 Sudoeste 0 -- -- 79
2020-07-07 20:00:00 -- 5 Sudoeste 13 Sudoeste 0 -- -- 71
2020-07-07 19:00:00 -- 6 Sudoeste 12 Sudoeste 0 -- -- 76
2020-07-07 18:00:00 -- 6 Sudoeste 11 Sur 0 -- -- 71
2020-07-07 17:00:00 -- 7 Sur 13 Sur 0 -- -- 84
2020-07-07 16:00:00 -- 10 Sur 14 Sur 0 -- -- 79
2020-07-07 15:00:00 -- 7 Sur 11 Sur 0 -- -- 71
2020-07-07 14:00:00 -- 9 Sur 13 Sur 0 -- -- 64
2020-07-07 13:00:00 -- 9 Sur 13 Sur 0 -- -- 62
2020-07-07 12:00:00 -- 6 Sur 11 Sur 0 -- -- 59
2020-07-07 11:00:00 -- 5 Sudoeste 10 Sur 0 -- -- 57
2020-07-07 10:00:00 -- 4 Sur 8 Sur 0 -- -- 53
2020-07-07 09:00:00 -- 0 Calma 6 Sudeste 0 -- -- 65
2020-07-07 08:00:00 -- 0 Calma 4 Norte 0 -- -- 71
2020-07-07 07:00:00 -- 0 Calma 5 Sudeste 0 -- -- 78
2020-07-07 06:00:00 -- 0 Calma 4 Sudoeste 0 -- -- 77
2020-07-07 05:00:00 -- 2 Sudoeste 5 Nordeste 0 -- -- 78
2020-07-07 04:00:00 -- 4 Nordeste 7 Nordeste 0 -- -- 77
2020-07-07 03:00:00 -- 3 Norte 7 Sudeste 0 -- -- 77
2020-07-07 02:00:00 -- 2 Sudeste 5 Noroeste 0 -- -- 75
2020-07-07 01:00:00 -- 0 Calma 6 Este 0 -- -- 77
2020-07-07 00:00:00 -- 0 Calma 5 Norte 0 -- -- 78